Santa Luzia, Brazil
Current Conditions -  °F | °C
As of 5:00 PM on Thursday 27 Nov 2014 (Local Time) from SBKG Reporting Station
Broken Clouds Broken Clouds  
Wind Chill: 77°   Ceiling: 3000
Heat Index: 79°   Visibility: 6mi
Dew Point: 66°   Wind: 20mph
Humidity: 69%   Direction: 100°E
Pressure: 29.94"   Gusts: NA
Location:  6.87°S, 36.92°W
Report Text: SBKG 272000Z 10017KT 9999 BKN030 25/19 Q1014
Loading
Personal Weather Stations






























Interactive Weather Map New forecast layout! Learn more

10-Day Weather Forecast

Advertisements
Track Severe Weather on mobile